Open Full Screen Window  High Contrast Mode
Wind Gusting 24 knots
18
May 28, 2015 4:55 PM CDT
Weather Information
Wind Direction
  180 °
Wind Speed
  18 kt (21 mph)
Wind Gust
  24 kt (28 mph)
Altimeter
29.88 in
Visibility
10 SM
Temperature
26° C
79° F
Dewpoint
15° C
59° F
Humidity
51%
1hr Rain Fall
00.00 in.
24hr Rain Fall
00.79 in.
Sky Condition
Scattered @ 6,000 ft
VFR

METAR KMDS 282155Z AUTO 18018G24KT 10SM SCT060 26/15 A2988 RMK AO2

*Background is not an actual portrayal of the airport.